Time;durP1;ratioP1;P1;durP2;ratioP2;P2;SDS_P1;SDS_P2;PMS_P1;PMS_P2;Temp;Humidity;BMP_temperature;BMP_pressure;BME280_temperature;BME280_humidity;BME280_pressure;Samples;Min_cycle;Max_cycle;Signal;HPM_P1;HPM_P2
2022/04/13 00:01:21;;;;;;;;;1.33;1.33;;;;;18.33;50.43;100874.00;4995934;28;45633;-89
2022/04/13 00:03:46;;;;;;;;;1.33;1.33;;;;;18.73;51.07;100943.03;4995985;28;45445;-91
2022/04/13 00:06:12;;;;;;;;;1.00;1.00;;;;;18.26;51.08;100880.84;4995346;27;45388;-91
2022/04/13 00:08:40;;;;;;;;;3.00;2.00;;;;;18.37;50.74;100903.47;4995417;28;45432;-91
2022/04/13 00:11:05;;;;;;;;;2.00;1.00;;;;;17.67;51.32;100802.44;4995043;28;45496;-89
2022/04/13 00:13:30;;;;;;;;;1.00;1.00;;;;;17.66;51.45;100788.09;4994351;27;46968;-88
2022/04/13 00:15:56;;;;;;;;;2.00;0.33;;;;;18.12;51.07;100878.28;4995184;28;45443;-91
2022/04/13 00:18:21;;;;;;;;;0.67;0.67;;;;;17.72;50.99;100828.09;4994110;28;45421;-90
2022/04/13 00:20:46;;;;;;;;;2.67;1.00;;;;;18.16;51.29;100906.75;4994356;28;45465;-90
2022/04/13 00:23:12;;;;;;;;;1.67;1.67;;;;;17.86;51.16;100842.41;4995343;27;45546;-91
2022/04/13 00:25:39;;;;;;;;;2.00;2.00;;;;;18.05;51.43;100882.41;4994559;28;45516;-90
2022/04/13 00:28:05;;;;;;;;;3.00;1.00;;;;;18.01;51.49;100873.69;4995524;28;45333;-90
2022/04/13 00:30:31;;;;;;;;;1.33;1.33;;;;;18.01;51.58;100884.47;4995508;28;45235;-91
2022/04/13 00:32:57;;;;;;;;;1.67;1.00;;;;;17.83;51.86;100840.81;4995175;28;46487;-91
2022/04/13 00:35:22;;;;;;;;;1.00;1.00;;;;;17.73;51.91;100834.34;4994951;27;45384;-90
2022/04/13 00:37:47;;;;;;;;;2.33;1.00;;;;;17.83;52.06;100864.22;4993952;28;45596;-91
2022/04/13 00:40:13;;;;;;;;;2.00;0.00;;;;;17.49;52.07;100797.41;4995678;27;45368;-91
2022/04/13 00:42:38;;;;;;;;;0.67;0.00;;;;;18.44;52.36;100956.00;4993511;27;48158;-90
2022/04/13 00:45:04;;;;;;;;;2.33;1.00;;;;;18.36;51.64;100948.50;4995161;28;45398;-91
2022/04/13 00:47:29;;;;;;;;;1.00;1.00;;;;;17.77;51.98;100867.31;5010259;28;45249;-90
2022/04/13 00:49:55;;;;;;;;;0.00;0.00;;;;;17.61;52.38;100828.00;4995528;27;45267;-91
2022/04/13 00:52:23;;;;;;;;;3.00;3.00;;;;;17.98;52.28;100882.00;4994901;27;46469;-91
2022/04/13 00:54:49;;;;;;;;;1.33;1.33;;;;;18.58;51.86;100980.16;4994643;27;45423;-91
2022/04/13 00:57:17;;;;;;;;;1.00;1.00;;;;;17.71;52.54;100847.94;4995495;28;45439;-90
2022/04/13 00:59:45;;;;;;;;;2.00;1.00;;;;;17.98;52.76;100887.41;4993824;27;45264;-91
2022/04/13 01:02:12;;;;;;;;;3.00;2.00;;;;;18.51;51.98;100970.78;5010280;27;47930;-91
2022/04/13 01:04:37;;;;;;;;;1.33;1.33;;;;;18.34;52.42;100942.34;4994780;27;45486;-91
2022/04/13 01:07:07;;;;;;;;;1.33;1.00;;;;;18.17;52.73;100908.50;4993814;28;45388;-90
2022/04/13 01:09:34;;;;;;;;;4.00;1.00;;;;;18.51;52.20;100957.28;4995079;27;45471;-91
2022/04/13 01:11:59;;;;;;;;;1.00;1.00;;;;;17.52;52.52;100817.88;4994155;28;45324;-91
2022/04/13 01:14:24;;;;;;;;;1.33;1.33;;;;;18.00;52.20;100898.91;4994467;28;45452;-91
2022/04/13 01:16:50;;;;;;;;;1.00;1.00;;;;;17.84;52.48;100885.69;4994873;27;45194;-92
2022/04/13 01:19:17;;;;;;;;;1.00;1.00;;;;;18.46;52.94;100967.56;4996334;27;45190;-92
2022/04/13 01:21:47;;;;;;;;;1.00;1.00;;;;;18.45;52.98;100971.22;4992692;28;47305;-91
2022/04/13 01:24:14;;;;;;;;;3.00;1.33;;;;;17.41;53.26;100802.47;4993802;27;45353;-92
2022/04/13 01:26:40;;;;;;;;;1.33;1.00;;;;;17.90;52.90;100892.47;4994801;27;45302;-92
2022/04/13 01:29:06;;;;;;;;;2.67;1.00;;;;;18.41;52.94;100981.41;4994123;28;45235;-92
2022/04/13 01:31:32;;;;;;;;;1.33;1.33;;;;;17.84;53.18;100898.28;5009844;27;47542;-92
2022/04/13 01:33:59;;;;;;;;;1.00;1.00;;;;;17.59;53.29;100859.59;4994011;28;45471;-92
2022/04/13 01:36:27;;;;;;;;;1.00;1.00;;;;;17.75;52.98;100894.41;4993586;28;45364;-92
2022/04/13 01:38:53;;;;;;;;;2.00;2.00;;;;;17.73;53.47;100878.34;4993417;27;45583;-92
2022/04/13 01:41:18;;;;;;;;;2.00;2.00;;;;;17.66;52.84;100885.13;4993576;28;47249;-92
2022/04/13 01:43:43;;;;;;;;;1.00;1.00;;;;;17.97;53.67;100941.44;4993982;28;45363;-92
2022/04/13 01:46:09;;;;;;;;;1.00;1.00;;;;;17.73;53.63;100908.00;5004782;28;45259;-92
2022/04/13 01:48:34;;;;;;;;;3.00;3.00;;;;;17.58;53.11;100871.31;5013913;28;45589;-91
2022/04/13 01:51:00;;;;;;;;;2.00;2.00;;;;;17.22;53.44;100821.78;4994212;28;47116;-92
2022/04/13 01:53:26;;;;;;;;;2.00;1.00;;;;;18.34;53.89;101001.69;4998982;28;45485;-93
2022/04/13 01:55:53;;;;;;;;;1.00;1.00;;;;;18.00;53.80;100944.75;4993051;28;45372;-92
2022/04/13 01:58:19;;;;;;;;;0.33;0.33;;;;;17.99;54.11;100956.53;4994871;28;45594;-91
2022/04/13 02:00:45;;;;;;;;;1.00;1.00;;;;;18.04;53.67;100954.38;4993995;28;45499;-91
2022/04/13 02:03:10;;;;;;;;;0.33;0.33;;;;;17.33;54.04;100842.59;4993186;27;45472;-92
2022/04/13 02:05:35;;;;;;;;;3.67;2.67;;;;;17.45;53.48;100865.97;4993631;28;45329;-92
2022/04/13 02:08:01;;;;;;;;;1.67;1.67;;;;;17.97;53.71;100960.31;4993202;28;45332;-92
2022/04/13 02:10:27;;;;;;;;;2.00;2.00;;;;;17.52;53.86;100909.50;4994278;28;45535;-92
2022/04/13 02:12:52;;;;;;;;;3.00;3.00;;;;;17.80;53.57;100932.69;4993593;27;45219;-92
2022/04/13 02:15:18;;;;;;;;;1.33;1.33;;;;;17.18;53.64;100832.88;4994206;28;45224;-91
2022/04/13 02:17:43;;;;;;;;;1.00;1.00;;;;;17.42;54.17;100885.06;4994362;27;45535;-92
2022/04/13 02:20:09;;;;;;;;;5.00;2.00;;;;;18.31;54.54;101027.06;4992353;28;46987;-92
2022/04/13 02:22:35;;;;;;;;;3.00;1.00;;;;;18.32;56.46;101022.53;4992819;28;45746;-91
2022/04/13 02:25:05;;;;;;;;;3.00;2.00;;;;;18.31;56.70;101031.63;4994051;28;45577;-91
2022/04/13 02:27:31;;;;;;;;;3.00;1.67;;;;;18.09;58.28;101025.03;4993269;28;45336;-91
2022/04/13 02:29:56;;;;;;;;;2.33;1.00;;;;;18.01;58.11;100999.59;4991580;27;48297;-91
2022/04/13 02:32:21;;;;;;;;;3.33;2.00;;;;;17.72;58.83;100943.13;4993841;28;45294;-90
2022/04/13 02:34:48;;;;;;;;;1.33;1.00;;;;;17.76;58.93;100957.28;4995240;28;45482;-90
2022/04/13 02:37:15;;;;;;;;;2.33;2.33;;;;;17.27;60.56;100878.03;4997068;27;45499;-91
2022/04/13 02:39:40;;;;;;;;;1.67;1.67;;;;;18.20;60.75;101043.16;4996312;28;46344;-90
2022/04/13 02:42:06;;;;;;;;;2.00;2.00;;;;;17.95;61.46;101021.59;4995779;28;45494;-90
2022/04/13 02:44:32;;;;;;;;;5.67;3.67;;;;;17.25;62.15;100890.72;4996837;27;45403;-90
2022/04/13 02:46:58;;;;;;;;;2.00;2.00;;;;;17.97;62.33;101014.25;4996397;28;45532;-90
2022/04/13 02:49:24;;;;;;;;;3.00;3.00;;;;;17.14;62.14;100869.94;4995166;27;48187;-90
2022/04/13 02:51:49;;;;;;;;;2.00;2.00;;;;;16.77;62.84;100823.13;4996306;27;45740;-90
2022/04/13 02:54:22;;;;;;;;;3.67;2.67;;;;;17.91;63.00;101011.03;4995169;28;45467;-90
2022/04/13 02:56:47;;;;;;;;;3.00;3.00;;;;;17.50;63.79;100947.34;4996899;28;45378;-90
2022/04/13 02:59:13;;;;;;;;;2.67;2.33;;;;;17.55;63.27;100951.56;4995976;27;46102;-90
2022/04/13 03:01:38;;;;;;;;;3.33;3.33;;;;;18.04;63.69;101037.97;5011847;28;47534;-90
2022/04/13 03:04:03;;;;;;;;;3.00;2.00;;;;;17.89;63.56;101025.59;4996477;28;45407;-90
2022/04/13 03:06:29;;;;;;;;;2.00;2.00;;;;;17.41;63.00;100939.88;5011603;27;45373;-90
2022/04/13 03:08:54;;;;;;;;;3.00;3.00;;;;;16.95;63.70;100867.66;4994816;27;47277;-89
2022/04/13 03:11:19;;;;;;;;;2.00;2.00;;;;;17.65;64.18;100988.56;4995538;27;45346;-89
2022/04/13 03:13:46;;;;;;;;;3.00;3.00;;;;;17.29;63.84;100930.81;4994958;27;45326;-90
2022/04/13 03:16:12;;;;;;;;;3.33;3.33;;;;;17.41;64.21;100956.06;4996375;27;45412;-90
2022/04/13 03:18:37;;;;;;;;;4.00;4.00;;;;;17.15;63.77;100921.97;4994920;27;47034;-90
2022/04/13 03:21:03;;;;;;;;;2.67;2.33;;;;;17.30;64.61;100964.91;5010991;27;45273;-90
2022/04/13 03:23:28;;;;;;;;;2.00;2.00;;;;;17.19;64.17;100964.75;4996478;27;45472;-90
2022/04/13 03:25:53;;;;;;;;;3.00;3.00;;;;;17.48;65.03;101026.56;4996489;28;45500;-90
2022/04/13 03:28:23;;;;;;;;;1.67;1.67;;;;;17.70;64.54;101059.19;4995716;27;47335;-90
2022/04/13 03:30:49;;;;;;;;;4.00;4.00;;;;;17.80;64.99;101070.19;4994506;27;45338;-90
2022/04/13 03:33:14;;;;;;;;;2.67;2.67;;;;;17.53;63.60;101035.19;4994706;27;45506;-89
2022/04/13 03:35:39;;;;;;;;;6.67;3.67;;;;;17.15;65.50;100973.16;4996565;27;45357;-90
2022/04/13 03:38:05;;;;;;;;;4.67;3.67;;;;;17.09;65.58;100964.53;4995210;27;46106;-89
2022/04/13 03:40:30;;;;;;;;;3.00;3.00;;;;;17.12;65.49;100979.63;4995714;28;45348;-90
2022/04/13 03:42:55;;;;;;;;;4.67;2.33;;;;;17.20;65.65;100995.25;4996069;28;45318;-89
2022/04/13 03:45:21;;;;;;;;;4.67;3.00;;;;;16.67;66.29;100917.09;4995808;28;45605;-90
2022/04/13 03:47:46;;;;;;;;;3.67;3.00;;;;;17.53;66.36;101064.84;4995368;27;46063;-90
2022/04/13 03:50:12;;;;;;;;;1.67;1.67;;;;;17.22;66.79;101014.88;4995180;27;45306;-89
2022/04/13 03:52:38;;;;;;;;;2.00;2.00;;;;;16.64;66.34;100930.72;4995955;27;45766;-89
2022/04/13 03:55:06;;;;;;;;;4.67;4.00;;;;;17.63;65.93;101101.00;4996017;28;45205;-89
2022/04/13 03:57:32;;;;;;;;;2.67;2.67;;;;;16.76;66.74;100947.88;4995363;28;45462;-89
2022/04/13 03:59:58;;;;;;;;;3.67;3.67;;;;;16.99;67.15;100992.16;4994263;28;45602;-90
2022/04/13 04:02:23;;;;;;;;;5.00;3.00;;;;;17.55;67.78;101097.97;4993955;27;45473;-89
2022/04/13 04:04:49;;;;;;;;;4.00;4.00;;;;;17.60;67.70;101108.44;4996167;27;45393;-89
2022/04/13 04:07:15;;;;;;;;;5.67;4.00;;;;;17.59;67.37;101104.03;4992011;27;47544;-90
2022/04/13 04:09:40;;;;;;;;;3.33;3.33;;;;;16.78;68.16;100978.25;5006606;28;45900;-89
2022/04/13 04:12:06;;;;;;;;;4.67;3.67;;;;;17.06;67.97;101025.81;4999000;28;45480;-90
2022/04/13 04:14:32;;;;;;;;;3.67;2.00;;;;;17.53;68.21;101107.97;4993820;27;45224;-89
2022/04/13 04:16:57;;;;;;;;;3.00;3.00;;;;;16.53;68.43;100936.84;4993374;28;47281;-90
2022/04/13 04:19:23;;;;;;;;;4.67;3.67;;;;;16.93;67.69;101009.59;4993216;28;45303;-90
2022/04/13 04:21:48;;;;;;;;;1.33;1.33;;;;;16.75;68.38;100983.88;4994726;27;45434;-89
2022/04/13 04:24:13;;;;;;;;;5.00;5.00;;;;;17.49;68.88;101112.72;4995004;27;45598;-90
2022/04/13 04:26:39;;;;;;;;;15.67;11.00;;;;;17.46;69.17;101112.91;4992924;28;48289;-87
2022/04/13 04:29:05;;;;;;;;;9.67;9.00;;;;;17.35;68.26;101103.81;4994500;28;45241;-86
2022/04/13 04:34:14;;;;;;;;;3.67;3.67;;;;;17.26;69.06;101092.69;4994993;27;45383;-87
2022/04/13 04:36:39;;;;;;;;;5.00;3.00;;;;;16.82;69.77;101018.38;4994214;27;45329;-87
2022/04/13 04:39:05;;;;;;;;;8.00;5.00;;;;;17.00;69.70;101048.63;5009189;28;45986;-86
2022/04/13 04:41:30;;;;;;;;;4.00;3.67;;;;;17.37;70.12;101112.66;4994274;28;45436;-86
2022/04/13 04:43:55;;;;;;;;;7.00;5.33;;;;;17.41;70.52;101130.34;4994180;27;45577;-86
2022/04/13 04:46:20;;;;;;;;;3.00;3.00;;;;;16.88;70.28;101047.59;4992487;27;54166;-88
2022/04/13 04:48:46;;;;;;;;;4.00;4.00;;;;;16.87;69.33;101059.31;4994281;28;45373;-88
2022/04/13 04:51:12;;;;;;;;;8.00;6.33;;;;;17.09;70.08;101084.84;4993884;28;45471;-87
2022/04/13 04:53:38;;;;;;;;;6.33;3.00;;;;;16.98;69.68;101069.41;5009417;27;45550;-87
2022/04/13 04:56:03;;;;;;;;;5.00;4.00;;;;;16.79;69.70;101034.75;4994695;28;45412;-85
2022/04/13 04:58:29;;;;;;;;;4.67;4.00;;;;;17.34;69.59;101129.91;4994358;28;45467;-85
2022/04/13 05:00:54;;;;;;;;;6.67;5.00;;;;;17.05;70.42;101088.72;4992813;27;45761;-85
2022/04/13 05:03:20;;;;;;;;;5.67;4.33;;;;;17.32;70.44;101133.66;4993130;28;45482;-86
2022/04/13 05:05:45;;;;;;;;;5.00;5.00;;;;;17.31;70.23;101135.50;4992714;28;46135;-85
2022/04/13 05:08:11;;;;;;;;;7.33;5.67;;;;;17.05;69.54;101086.03;4993638;28;45302;-86
2022/04/13 05:10:36;;;;;;;;;5.00;5.00;;;;;17.17;69.93;101111.28;4993322;28;45638;-85
2022/04/13 05:13:02;;;;;;;;;4.67;4.67;;;;;17.30;70.09;101139.13;4993540;28;45617;-86
2022/04/13 05:15:28;;;;;;;;;5.00;3.00;;;;;16.71;69.60;101049.63;5002741;28;45597;-89
2022/04/13 05:17:54;;;;;;;;;4.33;4.00;;;;;17.27;70.08;101148.28;4995636;28;45375;-90
2022/04/13 05:20:19;;;;;;;;;5.00;5.00;;;;;17.00;70.59;101102.47;4996357;28;45503;-90
2022/04/13 05:22:45;;;;;;;;;5.00;5.00;;;;;17.18;70.07;101134.56;4996713;27;45638;-87
2022/04/13 05:25:15;;;;;;;;;5.67;4.67;;;;;16.43;69.42;101014.56;4995506;28;46289;-90
2022/04/13 05:27:41;;;;;;;;;5.00;5.00;;;;;17.25;70.28;101146.66;5027117;28;45425;-88
2022/04/13 05:30:08;;;;;;;;;8.33;6.67;;;;;16.51;69.94;101027.56;4992373;27;45361;-87
2022/04/13 05:32:45;;;;;;;;;7.00;5.33;;;;;16.69;70.39;101060.47;4993865;28;45582;-88
2022/04/13 05:35:10;;;;;;;;;7.67;4.67;;;;;16.65;70.70;101045.50;4992039;28;46563;-88
2022/04/13 05:37:35;;;;;;;;;4.00;4.00;;;;;16.66;70.40;101052.59;4992233;27;45296;-88
2022/04/13 05:40:01;;;;;;;;;7.00;5.00;;;;;16.71;70.07;101063.94;4992785;28;45433;-86
2022/04/13 05:42:26;;;;;;;;;6.67;5.67;;;;;17.16;70.55;101137.38;4993391;28;45503;-87
2022/04/13 05:44:52;;;;;;;;;0.00;0.00;;;;;17.04;70.98;101116.59;4993586;28;49900;-87
2022/04/13 05:47:17;;;;;;;;;4.33;4.00;;;;;17.23;71.85;101145.88;4997842;27;45522;-88
2022/04/13 05:49:43;;;;;;;;;2.67;2.67;;;;;17.02;70.48;101119.41;5008162;27;45343;-89
2022/04/13 05:52:08;;;;;;;;;6.33;4.67;;;;;16.40;70.05;101028.22;5007426;27;45556;-88
2022/04/13 05:54:34;;;;;;;;;5.67;5.67;;;;;17.23;70.57;101156.66;4993933;28;45423;-89
2022/04/13 05:57:02;;;;;;;;;7.67;7.33;;;;;16.80;70.94;101086.75;4990834;28;45792;-89
2022/04/13 05:59:28;;;;;;;;;6.00;6.00;;;;;17.09;70.82;101133.31;4992403;27;45618;-89
2022/04/13 06:01:53;;;;;;;;;6.67;6.67;;;;;16.66;70.55;101066.06;4992899;28;45297;-89
2022/04/13 06:04:19;;;;;;;;;6.33;6.00;;;;;17.08;70.48;101143.22;4992106;27;54630;-89
2022/04/13 06:06:44;;;;;;;;;7.67;5.33;;;;;17.28;70.85;101179.66;4992130;28;49835;-88
2022/04/13 06:09:09;;;;;;;;;12.67;7.33;;;;;16.91;70.74;101129.16;5001011;27;46370;-89
2022/04/13 06:11:34;;;;;;;;;8.33;6.33;;;;;16.79;70.95;101128.97;4995945;28;45589;-89
2022/04/13 06:14:00;;;;;;;;;8.00;5.00;;;;;16.96;75.90;101154.81;4994010;27;48119;-89
2022/04/13 06:16:25;;;;;;;;;8.67;7.00;;;;;17.21;76.65;101205.28;4995280;28;49289;-88
2022/04/13 06:18:50;;;;;;;;;8.33;8.33;;;;;16.99;73.02;101168.06;4994577;27;45658;-88
2022/04/13 06:21:16;;;;;;;;;9.00;7.67;;;;;16.67;72.06;101114.44;4995732;27;45723;-88
2022/04/13 06:23:41;;;;;;;;;8.00;7.67;;;;;17.09;71.84;101184.50;4994964;27;45693;-87
2022/04/13 06:26:06;;;;;;;;;3.67;2.00;;;;;17.19;72.15;101209.91;4995609;27;45338;-88
2022/04/13 06:28:32;;;;;;;;;3.67;2.67;;;;;17.18;71.84;101210.84;4997415;28;45581;-88
2022/04/13 06:30:58;;;;;;;;;8.67;6.33;;;;;16.46;71.62;101091.56;4997597;28;45644;-87
2022/04/13 06:33:23;;;;;;;;;5.67;5.67;;;;;17.19;71.58;101212.59;4994996;28;45438;-88
2022/04/13 06:35:48;;;;;;;;;6.00;5.33;;;;;16.89;72.01;101175.00;4994444;28;51888;-89
2022/04/13 06:38:14;;;;;;;;;38.00;30.67;;;;;17.22;73.32;101225.84;4994322;27;45344;-86
2022/04/13 06:40:39;;;;;;;;;27.67;25.67;;;;;16.72;72.60;101157.19;4994208;27;45414;-88
2022/04/13 06:43:04;;;;;;;;;8.33;8.33;;;;;17.25;72.97;101243.66;4995077;27;46066;-88
2022/04/13 06:45:30;;;;;;;;;14.00;9.00;;;;;17.22;73.59;101239.31;4991596;28;46518;-91
2022/04/13 06:47:55;;;;;;;;;10.67;8.33;;;;;16.49;73.12;101129.03;5007353;27;46498;-92
2022/04/13 06:50:21;;;;;;;;;9.33;8.00;;;;;16.99;72.68;101203.06;4997161;28;45639;-90
2022/04/13 06:52:46;;;;;;;;;7.33;6.33;;;;;16.26;72.52;101087.41;4993001;28;46951;-88
2022/04/13 06:55:12;;;;;;;;;14.67;11.33;;;;;16.38;72.98;101121.63;5000639;27;45311;-96
2022/04/13 06:57:46;;;;;;;;;13.67;11.33;;;;;16.83;72.88;101207.69;4998803;28;45394;-96
2022/04/13 07:00:30;;;;;;;;;17.00;13.33;;;;;16.19;73.03;101078.84;4997177;28;45445;-94
2022/04/13 07:02:57;;;;;;;;;11.00;9.67;;;;;16.36;73.56;101128.91;4998020;27;48107;-95
2022/04/13 07:05:32;;;;;;;;;11.67;11.67;;;;;16.44;72.90;101144.59;4999757;28;45300;-96
2022/04/13 07:08:05;;;;;;;;;12.33;12.00;;;;;16.29;72.96;101124.00;5003954;28;45266;-95
2022/04/13 07:10:47;;;;;;;;;13.00;10.50;;;;;16.62;73.18;101174.88;4997219;28;45152;-92
2022/04/13 07:13:50;;;;;;;;;10.33;9.67;;;;;17.36;73.53;101302.25;4996904;27;45401;-93
2022/04/13 07:16:15;;;;;;;;;10.33;10.00;;;;;17.01;72.62;101252.31;4997291;28;45244;-93
2022/04/13 07:18:44;;;;;;;;;14.67;10.33;;;;;16.76;73.17;101212.56;4996818;27;45303;-92
2022/04/13 07:21:09;;;;;;;;;12.67;9.67;;;;;16.27;73.40;101132.16;4995937;27;45431;-90
2022/04/13 07:23:34;;;;;;;;;6.00;4.67;;;;;17.30;73.70;101306.19;4994321;28;45952;-87
2022/04/13 07:26:00;;;;;;;;;6.00;6.00;;;;;17.33;73.24;101322.19;4994270;27;45761;-89
2022/04/13 07:28:25;;;;;;;;;11.33;9.67;;;;;16.29;73.19;101134.78;4994493;27;45484;-85
2022/04/13 07:30:50;;;;;;;;;10.00;10.00;;;;;17.02;73.34;101262.16;4994642;27;45555;-87
2022/04/13 07:33:16;;;;;;;;;9.33;9.33;;;;;17.20;73.29;101286.19;4993165;28;48003;-88
2022/04/13 07:35:41;;;;;;;;;9.67;8.67;;;;;17.07;73.15;101280.72;4994140;27;45544;-88
2022/04/13 07:38:06;;;;;;;;;21.00;14.33;;;;;16.91;73.21;101253.00;4994684;28;45352;-87
2022/04/13 07:40:32;;;;;;;;;15.00;12.33;;;;;17.06;73.41;101279.81;4994979;28;45432;-88
2022/04/13 07:42:57;;;;;;;;;15.33;12.67;;;;;16.87;73.67;101238.84;4994730;28;45369;-88
2022/04/13 07:45:22;;;;;;;;;17.00;11.33;;;;;17.21;73.83;101307.66;4995741;28;45357;-88
2022/04/13 07:47:48;;;;;;;;;13.67;13.67;;;;;17.41;73.69;101329.78;4994135;28;45621;-88
2022/04/13 07:50:14;;;;;;;;;15.33;13.33;;;;;17.12;73.55;101277.72;4995518;28;45486;-92
2022/04/13 07:52:41;;;;;;;;;53.25;43.25;;;;;17.47;74.16;101341.03;5009363;27;48047;-88
2022/04/13 07:55:09;;;;;;;;;14.33;13.00;;;;;17.48;73.64;101349.97;4994600;27;45504;-87
2022/04/13 07:57:35;;;;;;;;;10.00;10.00;;;;;17.02;73.97;101272.03;4995632;27;45592;-87
2022/04/13 08:00:00;;;;;;;;;11.67;11.67;;;;;17.44;73.59;101340.34;4995108;27;45475;-87
2022/04/13 08:02:26;;;;;;;;;11.00;11.00;;;;;17.13;73.55;101280.31;4995313;28;45618;-87
2022/04/13 08:04:51;;;;;;;;;15.33;14.00;;;;;16.22;74.14;101136.97;4995011;28;45594;-87
2022/04/13 08:07:17;;;;;;;;;11.00;11.00;;;;;16.98;74.16;101247.13;4994937;27;45649;-87
2022/04/13 08:09:42;;;;;;;;;10.67;10.00;;;;;17.50;73.92;101340.84;4995043;28;45395;-87
2022/04/13 08:12:08;;;;;;;;;13.00;11.50;;;;;16.73;73.80;101209.19;4994982;28;46328;-87
2022/04/13 08:14:34;;;;;;;;;13.00;11.67;;;;;17.56;73.82;101339.59;4995144;27;45362;-87
2022/04/13 08:17:03;;;;;;;;;13.67;12.00;;;;;17.13;74.15;101271.38;4994062;27;45565;-87
2022/04/13 08:19:29;;;;;;;;;12.00;12.00;;;;;17.13;73.50;101266.84;4995534;28;45598;-87
2022/04/13 08:21:54;;;;;;;;;12.67;11.00;;;;;16.84;73.57;101220.22;4993301;27;48194;-88
2022/04/13 08:24:20;;;;;;;;;6.67;6.67;;;;;16.60;73.66;101171.41;4994455;28;52572;-88
2022/04/13 08:26:45;;;;;;;;;29.67;23.67;;;;;17.61;72.01;101353.63;4994930;28;45369;-90
2022/04/13 08:29:10;;;;;;;;;26.67;24.00;;;;;17.60;72.22;101354.59;4997469;28;45495;-90
2022/04/13 08:31:37;;;;;;;;;12.33;12.00;;;;;16.98;72.60;101257.91;4994465;27;46127;-90
2022/04/13 08:34:02;;;;;;;;;13.00;13.00;;;;;17.59;72.17;101355.56;4993995;28;45378;-89
2022/04/13 08:36:27;;;;;;;;;11.67;11.67;;;;;16.95;71.63;101249.13;4993118;27;45355;-89
2022/04/13 08:38:53;;;;;;;;;14.00;12.67;;;;;17.27;72.80;101303.69;4993539;27;45518;-89
2022/04/13 08:41:46;;;;;;;;;19.00;13.33;;;;;17.57;72.25;101367.41;4994235;27;45476;-88
2022/04/13 08:44:16;;;;;;;;;12.33;11.00;;;;;16.71;73.23;101216.50;5004762;27;45498;-89
2022/04/13 08:46:43;;;;;;;;;17.00;12.33;;;;;16.94;72.47;101264.44;4994662;27;45369;-89
2022/04/13 08:49:09;;;;;;;;;13.67;12.67;;;;;17.47;72.55;101362.59;4993507;27;45440;-89
2022/04/13 08:51:36;;;;;;;;;8.67;8.67;;;;;16.55;70.93;101235.41;4993017;27;48278;-90
2022/04/13 08:54:18;;;;;;;;;11.00;11.00;;;;;17.58;71.77;101393.38;4992903;27;45456;-89
2022/04/13 08:56:47;;;;;;;;;10.33;9.33;;;;;17.58;72.20;101388.84;4994880;28;45414;-91
2022/04/13 08:59:32;;;;;;;;;13.33;12.00;;;;;16.53;72.56;101218.50;4993752;28;45275;-91
2022/04/13 09:02:39;;;;;;;;;12.67;12.33;;;;;17.06;72.00;101306.75;4990558;28;45295;-91
2022/04/13 09:05:12;;;;;;;;;12.00;9.67;;;;;17.50;72.04;101383.09;5034531;28;45333;-90
2022/04/13 09:07:39;;;;;;;;;11.00;9.67;;;;;16.60;72.08;101233.28;5017509;28;45493;-90
2022/04/13 09:10:10;;;;;;;;;15.00;13.33;;;;;17.16;72.86;101335.81;5011910;28;45576;-91
2022/04/13 09:12:36;;;;;;;;;16.67;11.67;;;;;16.32;73.64;101172.22;5017366;28;48248;-89
2022/04/13 09:15:04;;;;;;;;;10.67;10.67;;;;;17.60;73.37;101394.16;5034275;28;45570;-89
2022/04/13 09:17:30;;;;;;;;;13.33;13.33;;;;;16.30;73.42;101175.03;5034438;28;45405;-89
2022/04/13 09:19:59;;;;;;;;;13.67;12.00;;;;;17.27;73.30;101336.03;5018169;28;45469;-88
2022/04/13 09:22:26;;;;;;;;;13.33;12.00;;;;;17.28;72.27;101333.25;5034469;28;45558;-89
2022/04/13 09:24:52;;;;;;;;;19.67;14.00;;;;;17.76;72.33;101419.19;5030091;28;45470;-88
2022/04/13 09:27:20;;;;;;;;;15.33;12.67;;;;;17.61;72.41;101396.78;5032959;28;45534;-90
2022/04/13 09:29:46;;;;;;;;;17.33;17.00;;;;;16.93;72.38;101300.41;5034376;28;46079;-90
2022/04/13 09:32:12;;;;;;;;;7.33;7.33;;;;;16.91;71.81;101313.09;5033987;28;45422;-89
2022/04/13 09:34:37;;;;;;;;;58.25;47.00;;;;;17.07;73.17;101307.66;5034161;28;45573;-88
2022/04/13 09:37:03;;;;;;;;;9.00;7.00;;;;;17.24;71.37;101342.47;5034328;28;45237;-89
2022/04/13 09:39:28;;;;;;;;;6.00;5.67;;;;;17.57;71.80;101402.44;5034942;28;45506;-89
2022/04/13 09:41:53;;;;;;;;;5.33;5.33;;;;;17.37;71.05;101376.72;5002702;28;47209;-90
2022/04/13 09:44:19;;;;;;;;;60.00;49.50;;;;;17.79;71.68;101445.09;4995902;28;45512;-89
2022/04/13 09:46:45;;;;;;;;;21.33;20.00;;;;;17.65;71.59;101438.75;4998064;28;45472;-89
2022/04/13 09:49:12;;;;;;;;;14.33;12.33;;;;;17.51;71.47;101395.59;4994825;27;45607;-91
2022/04/13 09:51:40;;;;;;;;;7.00;7.00;;;;;17.50;70.71;101380.41;4992142;28;46460;-89
2022/04/13 09:54:12;;;;;;;;;9.33;6.67;;;;;17.03;70.88;101292.63;5009902;27;45480;-93
2022/04/13 09:56:39;;;;;;;;;9.33;8.00;;;;;17.94;71.50;101438.78;4996602;27;45441;-91
2022/04/13 09:59:05;;;;;;;;;7.00;6.33;;;;;17.10;70.99;101302.06;4997072;28;45242;-91
2022/04/13 10:01:37;;;;;;;;;10.67;10.00;;;;;17.64;70.57;101390.31;4994763;28;47185;-90
2022/04/13 10:04:03;;;;;;;;;9.67;8.00;;;;;18.00;72.04;101435.66;5011586;27;45853;-92
2022/04/13 10:06:30;;;;;;;;;11.33;9.67;;;;;18.07;71.58;101441.53;5013592;27;45468;-91
2022/04/13 10:09:00;;;;;;;;;12.33;9.33;;;;;17.18;71.20;101301.56;4996367;27;45365;-90
2022/04/13 10:11:26;;;;;;;;;10.00;8.33;;;;;16.72;71.16;101210.19;4994089;28;47540;-89
2022/04/13 10:13:51;;;;;;;;;9.67;9.33;;;;;17.87;70.73;101414.03;4998725;28;45304;-87
2022/04/13 10:16:17;;;;;;;;;10.00;9.00;;;;;17.35;70.35;101327.44;4996833;27;45415;-88
2022/04/13 10:19:02;;;;;;;;;10.67;10.00;;;;;17.72;69.99;101404.16;4997885;27;45376;-87
2022/04/13 10:21:43;;;;;;;;;11.00;10.33;;;;;18.05;70.61;101460.56;4997222;28;46271;-85
2022/04/13 10:24:33;;;;;;;;;9.67;8.67;;;;;17.19;70.47;101303.31;4997109;27;45598;-85
2022/04/13 10:27:16;;;;;;;;;10.33;10.33;;;;;17.45;70.00;101358.25;5011343;28;45406;-86
2022/04/13 10:29:43;;;;;;;;;21.00;18.67;;;;;17.19;70.44;101301.50;4996496;27;45393;-89
2022/04/13 10:32:22;;;;;;;;;14.00;13.00;;;;;18.11;70.76;101441.25;4994819;28;47370;-89
2022/04/13 10:34:52;;;;;;;;;9.00;6.67;;;;;18.24;70.07;101448.53;4994407;28;45735;-87
2022/04/13 10:37:21;;;;;;;;;8.67;7.00;;;;;18.21;69.00;101446.91;4995497;27;45384;-88
2022/04/13 10:39:48;;;;;;;;;5.67;5.67;;;;;18.26;70.41;101449.31;4995246;28;45404;-87
2022/04/13 10:42:16;;;;;;;;;11.00;8.67;;;;;17.56;70.32;101320.72;4993982;28;47434;-88
2022/04/13 10:44:57;;;;;;;;;9.67;9.33;;;;;18.26;70.78;101425.03;4995288;27;45430;-85
2022/04/13 10:47:34;;;;;;;;;10.00;6.00;;;;;18.44;69.75;101460.75;4995230;28;45419;-85
2022/04/13 10:50:03;;;;;;;;;7.33;7.33;;;;;18.45;69.59;101457.97;4994361;27;45476;-86
2022/04/13 10:52:39;;;;;;;;;6.00;6.00;;;;;18.00;69.99;101383.56;4995769;28;47514;-86
2022/04/13 10:55:10;;;;;;;;;4.00;3.00;;;;;18.44;68.54;101458.06;5008904;27;45796;-87
2022/04/13 10:57:39;;;;;;;;;4.33;3.67;;;;;17.99;67.25;101385.41;4995037;28;45383;-86
2022/04/13 11:00:07;;;;;;;;;3.00;3.00;;;;;18.09;67.72;101409.94;4992153;28;45432;-85
2022/04/13 11:02:46;;;;;;;;;4.00;3.67;;;;;18.42;67.12;101466.25;4989838;27;45705;-88
2022/04/13 11:05:13;;;;;;;;;4.67;4.00;;;;;17.59;68.19;101319.66;4994549;27;46186;-88
2022/04/13 11:07:40;;;;;;;;;5.33;4.00;;;;;18.47;67.89;101463.25;4995578;27;45431;-84
2022/04/13 11:10:11;;;;;;;;;2.33;1.00;;;;;18.49;66.93;101453.22;4995602;27;45639;-88
2022/04/13 11:12:37;;;;;;;;;13.00;11.67;;;;;17.78;67.33;101338.22;4995349;28;45439;-87
2022/04/13 11:15:03;;;;;;;;;6.00;4.00;;;;;17.82;68.43;101340.66;4993624;28;45820;-86
2022/04/13 11:17:28;;;;;;;;;2.00;2.00;;;;;18.38;68.09;101421.56;4995033;28;45592;-87
2022/04/13 11:20:22;;;;;;;;;2.67;2.67;;;;;18.50;67.70;101439.63;4995400;28;45533;-87
2022/04/13 11:23:13;;;;;;;;;3.00;3.00;;;;;18.62;66.77;101454.16;4992605;28;45547;-86
2022/04/13 11:25:51;;;;;;;;;5.00;5.00;;;;;18.49;66.42;101432.47;4993758;27;45478;-86